sensor_id;sensor_type;location;lat;lon;timestamp;P1;durP1;ratioP1;P2;durP2;ratioP2
5175;SDS011;2607;50.934;6.934;2022-12-15T00:02:16;25.40;;;15.53;;
5175;SDS011;2607;50.934;6.934;2022-12-15T00:05:01;25.63;;;15.20;;
5175;SDS011;2607;50.934;6.934;2022-12-15T00:07:46;26.67;;;15.90;;
5175;SDS011;2607;50.934;6.934;2022-12-15T00:10:30;26.50;;;16.13;;
5175;SDS011;2607;50.934;6.934;2022-12-15T00:13:14;19.97;;;13.70;;
5175;SDS011;2607;50.934;6.934;2022-12-15T00:15:58;23.13;;;14.67;;
5175;SDS011;2607;50.934;6.934;2022-12-15T00:18:42;32.13;;;15.00;;
5175;SDS011;2607;50.934;6.934;2022-12-15T00:21:26;25.17;;;15.23;;
5175;SDS011;2607;50.934;6.934;2022-12-15T00:24:10;21.73;;;14.70;;
5175;SDS011;2607;50.934;6.934;2022-12-15T00:26:55;29.30;;;16.17;;
5175;SDS011;2607;50.934;6.934;2022-12-15T00:29:39;29.93;;;15.73;;
5175;SDS011;2607;50.934;6.934;2022-12-15T00:32:23;21.53;;;13.77;;
5175;SDS011;2607;50.934;6.934;2022-12-15T00:35:07;24.67;;;14.50;;
5175;SDS011;2607;50.934;6.934;2022-12-15T00:37:51;22.80;;;13.80;;
5175;SDS011;2607;50.934;6.934;2022-12-15T00:40:35;22.70;;;15.13;;
5175;SDS011;2607;50.934;6.934;2022-12-15T00:43:01;24.57;;;14.73;;
5175;SDS011;2607;50.934;6.934;2022-12-15T00:45:27;21.83;;;13.40;;
5175;SDS011;2607;50.934;6.934;2022-12-15T00:48:12;24.73;;;14.80;;
5175;SDS011;2607;50.934;6.934;2022-12-15T00:50:38;23.10;;;14.53;;
5175;SDS011;2607;50.934;6.934;2022-12-15T00:53:16;23.67;;;14.80;;
5175;SDS011;2607;50.934;6.934;2022-12-15T00:56:00;21.63;;;14.47;;
5175;SDS011;2607;50.934;6.934;2022-12-15T00:58:44;23.40;;;14.00;;
5175;SDS011;2607;50.934;6.934;2022-12-15T01:01:29;21.30;;;13.00;;
5175;SDS011;2607;50.934;6.934;2022-12-15T01:04:13;20.80;;;13.83;;
5175;SDS011;2607;50.934;6.934;2022-12-15T01:06:57;19.87;;;13.60;;
5175;SDS011;2607;50.934;6.934;2022-12-15T01:09:41;20.53;;;13.57;;
5175;SDS011;2607;50.934;6.934;2022-12-15T01:12:25;24.90;;;13.63;;
5175;SDS011;2607;50.934;6.934;2022-12-15T01:15:09;22.03;;;14.50;;
5175;SDS011;2607;50.934;6.934;2022-12-15T01:17:53;25.13;;;13.73;;
5175;SDS011;2607;50.934;6.934;2022-12-15T01:20:37;24.27;;;15.17;;
5175;SDS011;2607;50.934;6.934;2022-12-15T01:23:03;25.60;;;15.30;;
5175;SDS011;2607;50.934;6.934;2022-12-15T01:25:29;23.07;;;14.60;;
5175;SDS011;2607;50.934;6.934;2022-12-15T01:27:54;24.20;;;14.90;;
5175;SDS011;2607;50.934;6.934;2022-12-15T01:30:21;22.50;;;14.10;;
5175;SDS011;2607;50.934;6.934;2022-12-15T01:32:49;24.03;;;14.47;;
5175;SDS011;2607;50.934;6.934;2022-12-15T01:35:15;25.00;;;14.93;;
5175;SDS011;2607;50.934;6.934;2022-12-15T01:37:42;22.97;;;13.93;;
5175;SDS011;2607;50.934;6.934;2022-12-15T01:40:10;22.07;;;14.50;;
5175;SDS011;2607;50.934;6.934;2022-12-15T01:42:57;26.03;;;14.23;;
5175;SDS011;2607;50.934;6.934;2022-12-15T01:47:59;23.53;;;14.30;;
5175;SDS011;2607;50.934;6.934;2022-12-15T01:50:29;21.50;;;14.60;;
5175;SDS011;2607;50.934;6.934;2022-12-15T01:52:57;20.97;;;14.03;;
5175;SDS011;2607;50.934;6.934;2022-12-15T01:55:23;25.00;;;15.03;;
5175;SDS011;2607;50.934;6.934;2022-12-15T01:57:53;26.10;;;15.00;;
5175;SDS011;2607;50.934;6.934;2022-12-15T02:00:21;27.20;;;16.07;;
5175;SDS011;2607;50.934;6.934;2022-12-15T02:02:47;23.80;;;15.40;;
5175;SDS011;2607;50.934;6.934;2022-12-15T02:05:13;23.53;;;15.83;;
5175;SDS011;2607;50.934;6.934;2022-12-15T02:07:38;23.63;;;14.77;;
5175;SDS011;2607;50.934;6.934;2022-12-15T02:10:04;22.20;;;14.40;;
5175;SDS011;2607;50.934;6.934;2022-12-15T02:12:39;26.43;;;15.50;;
5175;SDS011;2607;50.934;6.934;2022-12-15T02:18:04;28.10;;;16.27;;
5175;SDS011;2607;50.934;6.934;2022-12-15T02:20:52;27.87;;;17.23;;
5175;SDS011;2607;50.934;6.934;2022-12-15T02:26:29;25.10;;;14.60;;
5175;SDS011;2607;50.934;6.934;2022-12-15T02:31:41;25.63;;;14.10;;
5175;SDS011;2607;50.934;6.934;2022-12-15T02:34:16;23.30;;;15.00;;
5175;SDS011;2607;50.934;6.934;2022-12-15T02:39:49;21.00;;;13.37;;
5175;SDS011;2607;50.934;6.934;2022-12-15T02:42:14;23.30;;;15.47;;
5175;SDS011;2607;50.934;6.934;2022-12-15T02:47:12;25.63;;;15.47;;
5175;SDS011;2607;50.934;6.934;2022-12-15T02:50:04;32.10;;;15.37;;
5175;SDS011;2607;50.934;6.934;2022-12-15T02:55:36;21.27;;;14.27;;
5175;SDS011;2607;50.934;6.934;2022-12-15T02:58:38;21.00;;;13.17;;
5175;SDS011;2607;50.934;6.934;2022-12-15T03:01:35;24.23;;;15.13;;
5175;SDS011;2607;50.934;6.934;2022-12-15T03:04:10;20.00;;;13.30;;
5175;SDS011;2607;50.934;6.934;2022-12-15T03:06:37;20.43;;;12.67;;
5175;SDS011;2607;50.934;6.934;2022-12-15T03:09:03;19.53;;;13.40;;
5175;SDS011;2607;50.934;6.934;2022-12-15T03:11:29;20.53;;;12.90;;
5175;SDS011;2607;50.934;6.934;2022-12-15T03:13:55;22.00;;;14.47;;
5175;SDS011;2607;50.934;6.934;2022-12-15T03:16:21;18.43;;;12.13;;
5175;SDS011;2607;50.934;6.934;2022-12-15T03:18:47;20.60;;;12.93;;
5175;SDS011;2607;50.934;6.934;2022-12-15T03:21:13;26.00;;;13.00;;
5175;SDS011;2607;50.934;6.934;2022-12-15T03:23:38;22.17;;;13.50;;
5175;SDS011;2607;50.934;6.934;2022-12-15T03:26:04;20.83;;;13.30;;
5175;SDS011;2607;50.934;6.934;2022-12-15T03:28:31;22.40;;;13.27;;
5175;SDS011;2607;50.934;6.934;2022-12-15T03:30:57;18.93;;;11.87;;
5175;SDS011;2607;50.934;6.934;2022-12-15T03:33:23;19.00;;;12.23;;
5175;SDS011;2607;50.934;6.934;2022-12-15T03:35:49;19.70;;;12.40;;
5175;SDS011;2607;50.934;6.934;2022-12-15T03:38:15;22.10;;;13.20;;
5175;SDS011;2607;50.934;6.934;2022-12-15T03:40:41;19.67;;;13.27;;
5175;SDS011;2607;50.934;6.934;2022-12-15T03:43:07;22.87;;;13.60;;
5175;SDS011;2607;50.934;6.934;2022-12-15T03:45:32;20.50;;;12.93;;
5175;SDS011;2607;50.934;6.934;2022-12-15T03:47:58;18.17;;;12.50;;
5175;SDS011;2607;50.934;6.934;2022-12-15T03:50:25;15.77;;;11.03;;
5175;SDS011;2607;50.934;6.934;2022-12-15T03:52:53;24.10;;;14.30;;
5175;SDS011;2607;50.934;6.934;2022-12-15T03:55:23;20.33;;;14.40;;
5175;SDS011;2607;50.934;6.934;2022-12-15T03:57:50;21.20;;;13.40;;
5175;SDS011;2607;50.934;6.934;2022-12-15T04:00:16;20.87;;;13.20;;
5175;SDS011;2607;50.934;6.934;2022-12-15T04:02:43;22.90;;;13.90;;
5175;SDS011;2607;50.934;6.934;2022-12-15T04:05:17;17.77;;;12.00;;
5175;SDS011;2607;50.934;6.934;2022-12-15T04:07:45;27.00;;;13.30;;
5175;SDS011;2607;50.934;6.934;2022-12-15T04:10:10;21.53;;;13.33;;
5175;SDS011;2607;50.934;6.934;2022-12-15T04:12:36;25.90;;;13.03;;
5175;SDS011;2607;50.934;6.934;2022-12-15T04:15:05;21.03;;;12.07;;
5175;SDS011;2607;50.934;6.934;2022-12-15T04:17:33;21.47;;;11.73;;
5175;SDS011;2607;50.934;6.934;2022-12-15T04:19:58;20.83;;;11.93;;
5175;SDS011;2607;50.934;6.934;2022-12-15T04:22:34;17.33;;;11.87;;
5175;SDS011;2607;50.934;6.934;2022-12-15T04:25:08;18.20;;;12.00;;
5175;SDS011;2607;50.934;6.934;2022-12-15T04:27:57;25.47;;;11.53;;
5175;SDS011;2607;50.934;6.934;2022-12-15T04:30:46;20.30;;;12.67;;
5175;SDS011;2607;50.934;6.934;2022-12-15T04:33:34;18.00;;;12.00;;
5175;SDS011;2607;50.934;6.934;2022-12-15T04:36:19;19.90;;;13.00;;
5175;SDS011;2607;50.934;6.934;2022-12-15T04:39:04;15.30;;;11.30;;
5175;SDS011;2607;50.934;6.934;2022-12-15T04:41:48;25.97;;;12.03;;
5175;SDS011;2607;50.934;6.934;2022-12-15T04:44:34;17.03;;;11.60;;
5175;SDS011;2607;50.934;6.934;2022-12-15T04:47:19;25.67;;;13.43;;
5175;SDS011;2607;50.934;6.934;2022-12-15T04:50:03;19.70;;;12.70;;
5175;SDS011;2607;50.934;6.934;2022-12-15T04:52:47;22.20;;;13.40;;
5175;SDS011;2607;50.934;6.934;2022-12-15T04:55:35;22.80;;;12.30;;
5175;SDS011;2607;50.934;6.934;2022-12-15T04:58:19;19.80;;;12.47;;
5175;SDS011;2607;50.934;6.934;2022-12-15T05:01:04;22.10;;;12.87;;
5175;SDS011;2607;50.934;6.934;2022-12-15T05:03:48;28.93;;;13.43;;
5175;SDS011;2607;50.934;6.934;2022-12-15T05:06:33;20.83;;;13.10;;
5175;SDS011;2607;50.934;6.934;2022-12-15T05:09:16;18.47;;;11.93;;
5175;SDS011;2607;50.934;6.934;2022-12-15T05:12:01;19.93;;;12.87;;
5175;SDS011;2607;50.934;6.934;2022-12-15T05:14:45;18.80;;;12.33;;
5175;SDS011;2607;50.934;6.934;2022-12-15T05:17:29;23.77;;;13.07;;
5175;SDS011;2607;50.934;6.934;2022-12-15T05:20:13;21.80;;;12.37;;
5175;SDS011;2607;50.934;6.934;2022-12-15T05:22:57;17.30;;;11.20;;
5175;SDS011;2607;50.934;6.934;2022-12-15T05:25:41;18.03;;;11.57;;
5175;SDS011;2607;50.934;6.934;2022-12-15T05:28:25;20.97;;;12.17;;
5175;SDS011;2607;50.934;6.934;2022-12-15T05:31:10;17.77;;;11.80;;
5175;SDS011;2607;50.934;6.934;2022-12-15T05:33:55;19.07;;;11.43;;
5175;SDS011;2607;50.934;6.934;2022-12-15T05:36:21;21.53;;;12.90;;
5175;SDS011;2607;50.934;6.934;2022-12-15T05:38:48;16.40;;;11.23;;
5175;SDS011;2607;50.934;6.934;2022-12-15T05:41:17;16.70;;;11.50;;
5175;SDS011;2607;50.934;6.934;2022-12-15T05:43:45;14.47;;;10.20;;
5175;SDS011;2607;50.934;6.934;2022-12-15T05:46:11;17.90;;;11.00;;
5175;SDS011;2607;50.934;6.934;2022-12-15T05:48:38;22.47;;;11.57;;
5175;SDS011;2607;50.934;6.934;2022-12-15T05:51:05;15.73;;;11.30;;
5175;SDS011;2607;50.934;6.934;2022-12-15T05:53:32;20.83;;;12.30;;
5175;SDS011;2607;50.934;6.934;2022-12-15T05:56:06;17.47;;;12.13;;
5175;SDS011;2607;50.934;6.934;2022-12-15T05:58:33;20.03;;;12.00;;
5175;SDS011;2607;50.934;6.934;2022-12-15T06:01:17;17.80;;;10.90;;
5175;SDS011;2607;50.934;6.934;2022-12-15T06:03:43;14.07;;;10.40;;
5175;SDS011;2607;50.934;6.934;2022-12-15T06:06:10;15.60;;;11.23;;
5175;SDS011;2607;50.934;6.934;2022-12-15T06:08:37;20.20;;;12.30;;
5175;SDS011;2607;50.934;6.934;2022-12-15T06:11:04;25.47;;;11.33;;
5175;SDS011;2607;50.934;6.934;2022-12-15T06:13:30;18.47;;;10.57;;
5175;SDS011;2607;50.934;6.934;2022-12-15T06:16:17;17.90;;;11.20;;
5175;SDS011;2607;50.934;6.934;2022-12-15T06:18:45;17.90;;;11.30;;
5175;SDS011;2607;50.934;6.934;2022-12-15T06:21:16;19.90;;;10.03;;
5175;SDS011;2607;50.934;6.934;2022-12-15T06:23:44;15.83;;;10.83;;
5175;SDS011;2607;50.934;6.934;2022-12-15T06:28:41;15.90;;;11.00;;
5175;SDS011;2607;50.934;6.934;2022-12-15T06:31:07;16.90;;;11.10;;
5175;SDS011;2607;50.934;6.934;2022-12-15T06:33:34;17.30;;;11.03;;
5175;SDS011;2607;50.934;6.934;2022-12-15T06:36:11;17.33;;;10.67;;
5175;SDS011;2607;50.934;6.934;2022-12-15T06:38:38;15.90;;;10.57;;
5175;SDS011;2607;50.934;6.934;2022-12-15T06:41:07;16.10;;;10.83;;
5175;SDS011;2607;50.934;6.934;2022-12-15T06:43:33;20.10;;;11.87;;
5175;SDS011;2607;50.934;6.934;2022-12-15T06:45:59;16.53;;;11.60;;
5175;SDS011;2607;50.934;6.934;2022-12-15T06:48:26;15.90;;;10.77;;
5175;SDS011;2607;50.934;6.934;2022-12-15T06:50:52;15.60;;;10.40;;
5175;SDS011;2607;50.934;6.934;2022-12-15T06:53:18;20.03;;;12.43;;
5175;SDS011;2607;50.934;6.934;2022-12-15T06:55:46;13.07;;;9.90;;
5175;SDS011;2607;50.934;6.934;2022-12-15T06:58:12;21.10;;;12.03;;
5175;SDS011;2607;50.934;6.934;2022-12-15T07:00:39;37.73;;;13.77;;
5175;SDS011;2607;50.934;6.934;2022-12-15T07:03:08;17.70;;;10.97;;
5175;SDS011;2607;50.934;6.934;2022-12-15T07:05:36;19.40;;;11.43;;
5175;SDS011;2607;50.934;6.934;2022-12-15T07:08:02;16.07;;;11.10;;
5175;SDS011;2607;50.934;6.934;2022-12-15T07:10:27;24.60;;;13.23;;
5175;SDS011;2607;50.934;6.934;2022-12-15T07:12:54;18.80;;;11.60;;
5175;SDS011;2607;50.934;6.934;2022-12-15T07:15:21;16.30;;;11.10;;
5175;SDS011;2607;50.934;6.934;2022-12-15T07:17:47;20.60;;;11.73;;
5175;SDS011;2607;50.934;6.934;2022-12-15T07:20:13;22.30;;;13.53;;
5175;SDS011;2607;50.934;6.934;2022-12-15T07:22:39;20.80;;;13.70;;
5175;SDS011;2607;50.934;6.934;2022-12-15T07:25:04;21.07;;;13.03;;
5175;SDS011;2607;50.934;6.934;2022-12-15T07:27:31;19.40;;;11.80;;
5175;SDS011;2607;50.934;6.934;2022-12-15T07:29:56;22.87;;;13.53;;
5175;SDS011;2607;50.934;6.934;2022-12-15T07:32:22;19.07;;;12.30;;
5175;SDS011;2607;50.934;6.934;2022-12-15T07:34:47;23.67;;;12.93;;
5175;SDS011;2607;50.934;6.934;2022-12-15T07:37:13;21.77;;;12.57;;
5175;SDS011;2607;50.934;6.934;2022-12-15T07:39:40;17.20;;;11.97;;
5175;SDS011;2607;50.934;6.934;2022-12-15T07:42:05;21.93;;;12.70;;
5175;SDS011;2607;50.934;6.934;2022-12-15T07:44:31;19.93;;;12.10;;
5175;SDS011;2607;50.934;6.934;2022-12-15T07:46:56;20.70;;;12.27;;
5175;SDS011;2607;50.934;6.934;2022-12-15T07:49:22;29.10;;;13.97;;
5175;SDS011;2607;50.934;6.934;2022-12-15T07:51:47;28.20;;;14.50;;
5175;SDS011;2607;50.934;6.934;2022-12-15T07:54:13;21.53;;;12.83;;
5175;SDS011;2607;50.934;6.934;2022-12-15T07:56:39;20.90;;;12.67;;
5175;SDS011;2607;50.934;6.934;2022-12-15T07:59:05;24.73;;;13.07;;
5175;SDS011;2607;50.934;6.934;2022-12-15T08:01:31;27.73;;;14.37;;
5175;SDS011;2607;50.934;6.934;2022-12-15T08:03:57;23.03;;;12.73;;
5175;SDS011;2607;50.934;6.934;2022-12-15T08:06:23;20.57;;;13.87;;
5175;SDS011;2607;50.934;6.934;2022-12-15T08:08:49;20.97;;;12.50;;
5175;SDS011;2607;50.934;6.934;2022-12-15T08:11:15;21.93;;;13.33;;
5175;SDS011;2607;50.934;6.934;2022-12-15T08:13:41;22.67;;;13.87;;
5175;SDS011;2607;50.934;6.934;2022-12-15T08:16:08;27.00;;;14.40;;
5175;SDS011;2607;50.934;6.934;2022-12-15T08:18:34;24.63;;;14.37;;
5175;SDS011;2607;50.934;6.934;2022-12-15T08:21:03;21.20;;;13.40;;
5175;SDS011;2607;50.934;6.934;2022-12-15T08:23:33;19.83;;;13.60;;
5175;SDS011;2607;50.934;6.934;2022-12-15T08:26:02;27.23;;;14.23;;
5175;SDS011;2607;50.934;6.934;2022-12-15T08:28:29;23.60;;;14.07;;
5175;SDS011;2607;50.934;6.934;2022-12-15T08:31:00;26.90;;;15.10;;
5175;SDS011;2607;50.934;6.934;2022-12-15T08:33:27;24.83;;;14.73;;
5175;SDS011;2607;50.934;6.934;2022-12-15T08:35:56;21.33;;;13.90;;
5175;SDS011;2607;50.934;6.934;2022-12-15T08:38:22;31.73;;;14.47;;
5175;SDS011;2607;50.934;6.934;2022-12-15T08:40:47;22.43;;;14.67;;
5175;SDS011;2607;50.934;6.934;2022-12-15T08:43:13;23.87;;;14.87;;
5175;SDS011;2607;50.934;6.934;2022-12-15T08:45:39;22.17;;;14.70;;
5175;SDS011;2607;50.934;6.934;2022-12-15T08:48:05;21.90;;;14.57;;
5175;SDS011;2607;50.934;6.934;2022-12-15T08:50:31;26.50;;;16.30;;
5175;SDS011;2607;50.934;6.934;2022-12-15T08:52:56;25.10;;;15.87;;
5175;SDS011;2607;50.934;6.934;2022-12-15T08:55:22;23.73;;;15.30;;
5175;SDS011;2607;50.934;6.934;2022-12-15T08:57:49;26.47;;;16.33;;
5175;SDS011;2607;50.934;6.934;2022-12-15T09:00:15;25.97;;;16.23;;
5175;SDS011;2607;50.934;6.934;2022-12-15T09:02:42;40.73;;;17.43;;
5175;SDS011;2607;50.934;6.934;2022-12-15T09:05:08;28.03;;;16.30;;
5175;SDS011;2607;50.934;6.934;2022-12-15T09:07:33;26.40;;;16.27;;
5175;SDS011;2607;50.934;6.934;2022-12-15T09:09:59;30.60;;;17.80;;
5175;SDS011;2607;50.934;6.934;2022-12-15T09:12:25;28.63;;;15.63;;
5175;SDS011;2607;50.934;6.934;2022-12-15T09:14:50;28.17;;;17.47;;
5175;SDS011;2607;50.934;6.934;2022-12-15T09:17:16;26.60;;;14.73;;
5175;SDS011;2607;50.934;6.934;2022-12-15T09:19:42;29.30;;;16.70;;
5175;SDS011;2607;50.934;6.934;2022-12-15T09:22:07;25.70;;;15.40;;
5175;SDS011;2607;50.934;6.934;2022-12-15T09:24:33;25.13;;;14.97;;
5175;SDS011;2607;50.934;6.934;2022-12-15T09:26:58;26.87;;;15.77;;
5175;SDS011;2607;50.934;6.934;2022-12-15T09:29:24;34.97;;;16.93;;
5175;SDS011;2607;50.934;6.934;2022-12-15T09:31:49;27.07;;;15.60;;
5175;SDS011;2607;50.934;6.934;2022-12-15T09:34:15;31.70;;;15.80;;
5175;SDS011;2607;50.934;6.934;2022-12-15T09:36:41;30.50;;;16.27;;
5175;SDS011;2607;50.934;6.934;2022-12-15T09:39:06;30.07;;;16.90;;
5175;SDS011;2607;50.934;6.934;2022-12-15T09:41:35;26.77;;;16.83;;
5175;SDS011;2607;50.934;6.934;2022-12-15T09:46:59;25.97;;;16.30;;
5175;SDS011;2607;50.934;6.934;2022-12-15T09:52:22;34.47;;;16.60;;
5175;SDS011;2607;50.934;6.934;2022-12-15T09:54:54;23.23;;;14.43;;
5175;SDS011;2607;50.934;6.934;2022-12-15T09:57:41;28.57;;;17.47;;
5175;SDS011;2607;50.934;6.934;2022-12-15T10:00:39;26.53;;;16.07;;
5175;SDS011;2607;50.934;6.934;2022-12-15T10:05:45;27.90;;;16.83;;
5175;SDS011;2607;50.934;6.934;2022-12-15T10:08:21;30.33;;;18.60;;
5175;SDS011;2607;50.934;6.934;2022-12-15T10:10:58;27.53;;;17.23;;
5175;SDS011;2607;50.934;6.934;2022-12-15T10:21:59;27.63;;;16.23;;
5175;SDS011;2607;50.934;6.934;2022-12-15T10:24:26;29.43;;;17.63;;
5175;SDS011;2607;50.934;6.934;2022-12-15T10:27:01;28.20;;;16.90;;
5175;SDS011;2607;50.934;6.934;2022-12-15T10:35:14;29.30;;;18.90;;
5175;SDS011;2607;50.934;6.934;2022-12-15T10:37:48;27.80;;;17.00;;
5175;SDS011;2607;50.934;6.934;2022-12-15T10:40:14;32.47;;;17.80;;
5175;SDS011;2607;50.934;6.934;2022-12-15T10:42:46;31.40;;;17.80;;
5175;SDS011;2607;50.934;6.934;2022-12-15T10:45:34;27.27;;;16.90;;
5175;SDS011;2607;50.934;6.934;2022-12-15T10:48:00;24.90;;;16.30;;
5175;SDS011;2607;50.934;6.934;2022-12-15T10:50:27;27.80;;;18.00;;
5175;SDS011;2607;50.934;6.934;2022-12-15T10:52:53;30.60;;;18.33;;
5175;SDS011;2607;50.934;6.934;2022-12-15T10:58:20;26.70;;;17.37;;
5175;SDS011;2607;50.934;6.934;2022-12-15T11:00:47;29.10;;;17.67;;
5175;SDS011;2607;50.934;6.934;2022-12-15T11:03:28;27.03;;;17.67;;
5175;SDS011;2607;50.934;6.934;2022-12-15T11:06:00;34.40;;;18.60;;
5175;SDS011;2607;50.934;6.934;2022-12-15T11:08:25;34.40;;;18.13;;
5175;SDS011;2607;50.934;6.934;2022-12-15T11:10:54;30.43;;;19.30;;
5175;SDS011;2607;50.934;6.934;2022-12-15T11:13:39;30.43;;;18.53;;
5175;SDS011;2607;50.934;6.934;2022-12-15T11:16:18;28.43;;;17.63;;
5175;SDS011;2607;50.934;6.934;2022-12-15T11:18:46;29.00;;;17.10;;
5175;SDS011;2607;50.934;6.934;2022-12-15T11:26:39;31.37;;;19.20;;
5175;SDS011;2607;50.934;6.934;2022-12-15T11:29:23;28.30;;;18.70;;
5175;SDS011;2607;50.934;6.934;2022-12-15T11:31:58;27.43;;;17.20;;
5175;SDS011;2607;50.934;6.934;2022-12-15T11:34:45;32.83;;;19.07;;
5175;SDS011;2607;50.934;6.934;2022-12-15T11:37:32;27.53;;;17.00;;
5175;SDS011;2607;50.934;6.934;2022-12-15T11:42:56;27.87;;;17.33;;
5175;SDS011;2607;50.934;6.934;2022-12-15T11:48:41;31.63;;;18.73;;
5175;SDS011;2607;50.934;6.934;2022-12-15T11:54:26;26.73;;;16.83;;
5175;SDS011;2607;50.934;6.934;2022-12-15T11:56:58;34.90;;;17.83;;
5175;SDS011;2607;50.934;6.934;2022-12-15T12:07:48;31.20;;;18.30;;
5175;SDS011;2607;50.934;6.934;2022-12-15T12:20:47;34.20;;;17.00;;
5175;SDS011;2607;50.934;6.934;2022-12-15T12:23:19;26.00;;;17.67;;
5175;SDS011;2607;50.934;6.934;2022-12-15T12:25:56;43.40;;;21.10;;
5175;SDS011;2607;50.934;6.934;2022-12-15T12:28:41;36.23;;;18.20;;
5175;SDS011;2607;50.934;6.934;2022-12-15T12:31:21;30.53;;;19.00;;
5175;SDS011;2607;50.934;6.934;2022-12-15T12:34:11;32.40;;;17.90;;
5175;SDS011;2607;50.934;6.934;2022-12-15T12:36:42;32.00;;;19.97;;
5175;SDS011;2607;50.934;6.934;2022-12-15T12:39:12;31.57;;;18.50;;
5175;SDS011;2607;50.934;6.934;2022-12-15T12:41:45;32.40;;;19.57;;
5175;SDS011;2607;50.934;6.934;2022-12-15T12:44:21;30.70;;;18.17;;
5175;SDS011;2607;50.934;6.934;2022-12-15T12:46:51;27.50;;;15.97;;
5175;SDS011;2607;50.934;6.934;2022-12-15T12:51:49;28.37;;;17.30;;
5175;SDS011;2607;50.934;6.934;2022-12-15T12:57:01;25.50;;;16.60;;
5175;SDS011;2607;50.934;6.934;2022-12-15T12:59:42;34.90;;;17.20;;
5175;SDS011;2607;50.934;6.934;2022-12-15T13:07:34;28.30;;;16.83;;
5175;SDS011;2607;50.934;6.934;2022-12-15T13:12:49;31.03;;;17.73;;
5175;SDS011;2607;50.934;6.934;2022-12-15T13:15:34;28.97;;;17.07;;
5175;SDS011;2607;50.934;6.934;2022-12-15T13:18:07;26.70;;;17.10;;
5175;SDS011;2607;50.934;6.934;2022-12-15T13:20:46;25.67;;;16.57;;
5175;SDS011;2607;50.934;6.934;2022-12-15T13:26:30;29.70;;;17.07;;
5175;SDS011;2607;50.934;6.934;2022-12-15T13:33:43;33.53;;;19.37;;
5175;SDS011;2607;50.934;6.934;2022-12-15T13:41:40;26.07;;;16.17;;
5175;SDS011;2607;50.934;6.934;2022-12-15T13:46:54;31.53;;;16.77;;
5175;SDS011;2607;50.934;6.934;2022-12-15T13:49:29;28.90;;;17.20;;
5175;SDS011;2607;50.934;6.934;2022-12-15T13:52:24;24.03;;;15.83;;
5175;SDS011;2607;50.934;6.934;2022-12-15T13:55:00;30.83;;;16.03;;
5175;SDS011;2607;50.934;6.934;2022-12-15T13:57:30;27.10;;;17.03;;
5175;SDS011;2607;50.934;6.934;2022-12-15T14:00:05;23.57;;;16.03;;
5175;SDS011;2607;50.934;6.934;2022-12-15T14:02:44;25.97;;;15.50;;
5175;SDS011;2607;50.934;6.934;2022-12-15T14:05:14;26.93;;;14.90;;
5175;SDS011;2607;50.934;6.934;2022-12-15T14:13:00;28.97;;;16.33;;
5175;SDS011;2607;50.934;6.934;2022-12-15T14:15:32;23.63;;;15.50;;
5175;SDS011;2607;50.934;6.934;2022-12-15T14:17:59;29.17;;;15.83;;
5175;SDS011;2607;50.934;6.934;2022-12-15T14:20:47;22.97;;;15.77;;
5175;SDS011;2607;50.934;6.934;2022-12-15T14:23:18;22.77;;;15.57;;
5175;SDS011;2607;50.934;6.934;2022-12-15T14:25:55;25.43;;;14.63;;
5175;SDS011;2607;50.934;6.934;2022-12-15T14:28:31;27.13;;;16.77;;
5175;SDS011;2607;50.934;6.934;2022-12-15T14:30:59;27.90;;;17.10;;
5175;SDS011;2607;50.934;6.934;2022-12-15T14:33:48;30.27;;;18.77;;
5175;SDS011;2607;50.934;6.934;2022-12-15T14:36:24;28.70;;;16.90;;
5175;SDS011;2607;50.934;6.934;2022-12-15T14:41:37;23.43;;;14.63;;
5175;SDS011;2607;50.934;6.934;2022-12-15T14:44:11;22.43;;;15.10;;
5175;SDS011;2607;50.934;6.934;2022-12-15T14:46:45;25.10;;;15.80;;
5175;SDS011;2607;50.934;6.934;2022-12-15T14:49:12;25.83;;;17.03;;
5175;SDS011;2607;50.934;6.934;2022-12-15T14:51:46;24.17;;;15.80;;
5175;SDS011;2607;50.934;6.934;2022-12-15T14:56:59;28.17;;;16.43;;
5175;SDS011;2607;50.934;6.934;2022-12-15T14:59:39;28.90;;;15.90;;
5175;SDS011;2607;50.934;6.934;2022-12-15T15:05:03;26.37;;;16.10;;
5175;SDS011;2607;50.934;6.934;2022-12-15T15:07:32;27.07;;;16.07;;
5175;SDS011;2607;50.934;6.934;2022-12-15T15:09:59;24.17;;;15.20;;
5175;SDS011;2607;50.934;6.934;2022-12-15T15:12:44;25.13;;;15.83;;
5175;SDS011;2607;50.934;6.934;2022-12-15T15:15:17;26.83;;;15.23;;
5175;SDS011;2607;50.934;6.934;2022-12-15T15:17:48;23.30;;;14.00;;
5175;SDS011;2607;50.934;6.934;2022-12-15T15:20:25;24.70;;;15.80;;
5175;SDS011;2607;50.934;6.934;2022-12-15T15:25:55;28.30;;;17.40;;
5175;SDS011;2607;50.934;6.934;2022-12-15T15:28:23;26.23;;;15.40;;
5175;SDS011;2607;50.934;6.934;2022-12-15T15:30:51;26.37;;;15.60;;
5175;SDS011;2607;50.934;6.934;2022-12-15T15:33:19;22.40;;;14.70;;
5175;SDS011;2607;50.934;6.934;2022-12-15T15:35:50;28.03;;;17.43;;
5175;SDS011;2607;50.934;6.934;2022-12-15T15:38:25;27.27;;;14.60;;
5175;SDS011;2607;50.934;6.934;2022-12-15T15:40:56;27.17;;;16.10;;
5175;SDS011;2607;50.934;6.934;2022-12-15T15:43:34;25.07;;;15.53;;
5175;SDS011;2607;50.934;6.934;2022-12-15T15:46:01;29.43;;;17.40;;
5175;SDS011;2607;50.934;6.934;2022-12-15T15:48:30;29.40;;;17.57;;
5175;SDS011;2607;50.934;6.934;2022-12-15T15:51:02;31.60;;;16.90;;
5175;SDS011;2607;50.934;6.934;2022-12-15T15:53:30;31.27;;;17.73;;
5175;SDS011;2607;50.934;6.934;2022-12-15T15:55:57;28.30;;;17.83;;
5175;SDS011;2607;50.934;6.934;2022-12-15T15:58:33;28.40;;;17.80;;
5175;SDS011;2607;50.934;6.934;2022-12-15T16:00:59;27.17;;;17.70;;
5175;SDS011;2607;50.934;6.934;2022-12-15T16:03:26;26.60;;;16.40;;
5175;SDS011;2607;50.934;6.934;2022-12-15T16:05:51;25.93;;;16.33;;
5175;SDS011;2607;50.934;6.934;2022-12-15T16:08:18;22.37;;;15.40;;
5175;SDS011;2607;50.934;6.934;2022-12-15T16:10:48;43.73;;;17.20;;
5175;SDS011;2607;50.934;6.934;2022-12-15T16:13:17;28.60;;;16.10;;
5175;SDS011;2607;50.934;6.934;2022-12-15T16:15:45;33.07;;;15.77;;
5175;SDS011;2607;50.934;6.934;2022-12-15T16:18:11;23.50;;;15.17;;
5175;SDS011;2607;50.934;6.934;2022-12-15T16:20:37;27.57;;;17.20;;
5175;SDS011;2607;50.934;6.934;2022-12-15T16:23:05;24.53;;;16.00;;
5175;SDS011;2607;50.934;6.934;2022-12-15T16:25:43;25.87;;;16.20;;
5175;SDS011;2607;50.934;6.934;2022-12-15T16:28:22;24.73;;;15.40;;
5175;SDS011;2607;50.934;6.934;2022-12-15T16:30:52;25.27;;;16.17;;
5175;SDS011;2607;50.934;6.934;2022-12-15T16:33:19;26.10;;;17.10;;
5175;SDS011;2607;50.934;6.934;2022-12-15T16:35:45;29.10;;;16.30;;
5175;SDS011;2607;50.934;6.934;2022-12-15T16:38:16;27.93;;;18.10;;
5175;SDS011;2607;50.934;6.934;2022-12-15T16:40:50;27.77;;;17.43;;
5175;SDS011;2607;50.934;6.934;2022-12-15T16:43:18;29.27;;;16.27;;
5175;SDS011;2607;50.934;6.934;2022-12-15T16:45:46;31.43;;;17.50;;
5175;SDS011;2607;50.934;6.934;2022-12-15T16:48:15;30.77;;;17.00;;
5175;SDS011;2607;50.934;6.934;2022-12-15T16:50:42;30.60;;;17.70;;
5175;SDS011;2607;50.934;6.934;2022-12-15T16:53:28;28.03;;;16.97;;
5175;SDS011;2607;50.934;6.934;2022-12-15T16:55:57;26.17;;;15.27;;
5175;SDS011;2607;50.934;6.934;2022-12-15T16:58:25;29.00;;;17.23;;
5175;SDS011;2607;50.934;6.934;2022-12-15T17:00:54;29.70;;;18.03;;
5175;SDS011;2607;50.934;6.934;2022-12-15T17:03:20;33.83;;;19.10;;
5175;SDS011;2607;50.934;6.934;2022-12-15T17:05:56;34.60;;;18.10;;
5175;SDS011;2607;50.934;6.934;2022-12-15T17:08:44;32.23;;;16.30;;
5175;SDS011;2607;50.934;6.934;2022-12-15T17:11:13;25.53;;;15.70;;
5175;SDS011;2607;50.934;6.934;2022-12-15T17:13:42;28.33;;;17.20;;
5175;SDS011;2607;50.934;6.934;2022-12-15T17:16:12;32.63;;;18.70;;
5175;SDS011;2607;50.934;6.934;2022-12-15T17:18:38;30.03;;;18.03;;
5175;SDS011;2607;50.934;6.934;2022-12-15T17:21:05;33.37;;;18.17;;
5175;SDS011;2607;50.934;6.934;2022-12-15T17:23:37;33.10;;;18.33;;
5175;SDS011;2607;50.934;6.934;2022-12-15T17:26:05;32.40;;;18.30;;